sensor_id;sensor_type;location;lat;lon;timestamp;pressure;altitude;pressure_sealevel;temperature;humidity
53689;BME280;39583;54.682;30.662;2023-03-03T07:37:35;98668.34;;;2.28;94.16
53689;BME280;39583;54.682;30.662;2023-03-03T07:40:28;98661.31;;;2.57;92.90
53689;BME280;39583;54.682;30.662;2023-03-03T07:42:56;98667.53;;;2.85;92.70
53689;BME280;39583;54.682;30.662;2023-03-03T07:45:36;98659.44;;;2.93;91.72
53689;BME280;39583;54.682;30.662;2023-03-03T07:48:35;98666.84;;;2.98;91.31
53689;BME280;39583;54.682;30.662;2023-03-03T07:51:09;98654.75;;;2.95;90.87
53689;BME280;39583;54.682;30.662;2023-03-03T07:53:36;98644.13;;;2.95;90.54
53689;BME280;39583;54.682;30.662;2023-03-03T07:58:49;98644.75;;;2.97;90.22
53689;BME280;39583;54.682;30.662;2023-03-03T08:01:30;98640.50;;;3.03;90.31
53689;BME280;39583;54.682;30.662;2023-03-03T08:03:59;98633.59;;;3.09;90.06
53689;BME280;39583;54.682;30.662;2023-03-03T08:11:50;98640.63;;;2.95;88.71
53689;BME280;39583;54.682;30.662;2023-03-03T08:14:24;98649.75;;;3.07;88.37
53689;BME280;39583;54.682;30.662;2023-03-03T08:16:52;98643.22;;;3.10;89.11
53689;BME280;39583;54.682;30.662;2023-03-03T08:19:18;98644.19;;;3.02;88.10
53689;BME280;39583;54.682;30.662;2023-03-03T08:21:44;98645.63;;;2.83;87.67
53689;BME280;39583;54.682;30.662;2023-03-03T08:24:11;98637.03;;;2.81;87.82
53689;BME280;39583;54.682;30.662;2023-03-03T08:26:37;98642.75;;;2.78;88.24
53689;BME280;39583;54.682;30.662;2023-03-03T08:29:03;98641.34;;;2.82;87.85
53689;BME280;39583;54.682;30.662;2023-03-03T08:31:29;98638.47;;;2.84;87.56
53689;BME280;39583;54.682;30.662;2023-03-03T08:33:56;98626.63;;;2.86;87.37
53689;BME280;39583;54.682;30.662;2023-03-03T08:36:22;98636.00;;;2.82;86.90
53689;BME280;39583;54.682;30.662;2023-03-03T08:38:48;98630.69;;;2.82;86.75
53689;BME280;39583;54.682;30.662;2023-03-03T08:41:14;98619.94;;;2.90;87.58
53689;BME280;39583;54.682;30.662;2023-03-03T08:43:40;98623.97;;;2.86;86.52
53689;BME280;39583;54.682;30.662;2023-03-03T08:46:07;98614.56;;;2.84;86.81
53689;BME280;39583;54.682;30.662;2023-03-03T08:48:34;98619.25;;;2.82;86.59
53689;BME280;39583;54.682;30.662;2023-03-03T08:51:01;98614.31;;;2.79;86.95
53689;BME280;39583;54.682;30.662;2023-03-03T08:53:27;98613.81;;;2.69;86.38
53689;BME280;39583;54.682;30.662;2023-03-03T08:55:54;98605.09;;;2.75;87.59
53689;BME280;39583;54.682;30.662;2023-03-03T08:58:20;98600.41;;;2.77;86.18
53689;BME280;39583;54.682;30.662;2023-03-03T09:00:47;98602.47;;;2.81;86.32
53689;BME280;39583;54.682;30.662;2023-03-03T09:03:13;98596.88;;;2.97;86.25
53689;BME280;39583;54.682;30.662;2023-03-03T09:05:39;98605.56;;;3.06;85.30
53689;BME280;39583;54.682;30.662;2023-03-03T09:08:06;98604.44;;;3.22;85.09
53689;BME280;39583;54.682;30.662;2023-03-03T09:10:33;98595.81;;;3.20;84.20
53689;BME280;39583;54.682;30.662;2023-03-03T09:13:13;98608.13;;;3.21;84.78
53689;BME280;39583;54.682;30.662;2023-03-03T09:15:40;98598.97;;;3.30;84.66
53689;BME280;39583;54.682;30.662;2023-03-03T09:18:25;98616.13;;;3.55;85.17
53689;BME280;39583;54.682;30.662;2023-03-03T09:20:54;98611.22;;;3.59;83.92
53689;BME280;39583;54.682;30.662;2023-03-03T09:23:40;98609.53;;;3.51;83.39
53689;BME280;39583;54.682;30.662;2023-03-03T09:26:27;98608.13;;;3.21;82.66
53689;BME280;39583;54.682;30.662;2023-03-03T09:31:43;98605.88;;;2.96;82.91
53689;BME280;39583;54.682;30.662;2023-03-03T11:01:56;98511.25;;;3.50;78.37
53689;BME280;39583;54.682;30.662;2023-03-03T11:09:55;98502.03;;;4.00;79.06
53689;BME280;39583;54.682;30.662;2023-03-03T11:12:27;98516.22;;;4.21;78.60
53689;BME280;39583;54.682;30.662;2023-03-03T11:20:41;98507.41;;;4.27;79.59
53689;BME280;39583;54.682;30.662;2023-03-03T11:23:24;98509.84;;;4.15;79.22
53689;BME280;39583;54.682;30.662;2023-03-03T11:26:09;98456.69;;;3.74;79.70
53689;BME280;39583;54.682;30.662;2023-03-03T11:31:36;98495.59;;;3.75;79.70
53689;BME280;39583;54.682;30.662;2023-03-03T11:37:01;98495.13;;;3.58;80.23
53689;BME280;39583;54.682;30.662;2023-03-03T11:39:28;98497.69;;;3.79;81.21
53689;BME280;39583;54.682;30.662;2023-03-03T11:44:40;98491.34;;;3.87;80.02
53689;BME280;39583;54.682;30.662;2023-03-03T11:47:26;98492.41;;;3.99;80.38
53689;BME280;39583;54.682;30.662;2023-03-03T11:55:15;98484.03;;;4.09;80.23
53689;BME280;39583;54.682;30.662;2023-03-03T11:57:44;98486.69;;;4.15;79.71
53689;BME280;39583;54.682;30.662;2023-03-03T12:03:10;98482.16;;;4.03;78.98
53689;BME280;39583;54.682;30.662;2023-03-03T12:22:12;98450.19;;;3.96;78.36
53689;BME280;39583;54.682;30.662;2023-03-03T12:38:45;98443.75;;;3.64;78.60
53689;BME280;39583;54.682;30.662;2023-03-03T12:49:19;98440.16;;;3.92;78.82
53689;BME280;39583;54.682;30.662;2023-03-03T12:52:10;98447.91;;;3.80;78.25
53689;BME280;39583;54.682;30.662;2023-03-03T12:55:21;98457.66;;;3.60;78.12
53689;BME280;39583;54.682;30.662;2023-03-03T12:57:45;98462.13;;;3.39;77.78
53689;BME280;39583;54.682;30.662;2023-03-03T13:00:23;98451.50;;;3.05;77.55
53689;BME280;39583;54.682;30.662;2023-03-03T13:02:59;98417.47;;;2.59;78.04
53689;BME280;39583;54.682;30.662;2023-03-03T13:09:02;98445.50;;;2.12;78.63
53689;BME280;39583;54.682;30.662;2023-03-03T13:11:37;98453.47;;;1.91;79.39
53689;BME280;39583;54.682;30.662;2023-03-03T13:17:13;98429.84;;;2.45;81.15
53689;BME280;39583;54.682;30.662;2023-03-03T13:19:52;98445.75;;;3.01;80.82
53689;BME280;39583;54.682;30.662;2023-03-03T13:25:06;98444.28;;;2.99;80.01
53689;BME280;39583;54.682;30.662;2023-03-03T13:27:41;98437.31;;;2.91;80.22
53689;BME280;39583;54.682;30.662;2023-03-03T13:30:19;98431.59;;;2.94;80.67
53689;BME280;39583;54.682;30.662;2023-03-03T13:33:01;98426.91;;;2.96;80.97
53689;BME280;39583;54.682;30.662;2023-03-03T13:35:45;98419.81;;;3.10;81.07
53689;BME280;39583;54.682;30.662;2023-03-03T13:38:17;98403.56;;;3.46;81.71
53689;BME280;39583;54.682;30.662;2023-03-03T13:40:48;98418.84;;;3.92;80.68
53689;BME280;39583;54.682;30.662;2023-03-03T13:43:30;98412.88;;;3.70;79.13
53689;BME280;39583;54.682;30.662;2023-03-03T13:46:12;98417.91;;;3.45;79.41
53689;BME280;39583;54.682;30.662;2023-03-03T13:51:38;98415.00;;;3.33;80.89
53689;BME280;39583;54.682;30.662;2023-03-03T13:57:02;98413.34;;;3.32;80.32
53689;BME280;39583;54.682;30.662;2023-03-03T14:07:29;98412.00;;;2.67;81.79
53689;BME280;39583;54.682;30.662;2023-03-03T14:10:15;98414.44;;;2.62;81.65
53689;BME280;39583;54.682;30.662;2023-03-03T14:13:02;98412.59;;;2.62;82.30
53689;BME280;39583;54.682;30.662;2023-03-03T14:15:35;98411.38;;;2.65;82.54
53689;BME280;39583;54.682;30.662;2023-03-03T14:18:17;98418.38;;;2.73;82.75
53689;BME280;39583;54.682;30.662;2023-03-03T14:20:52;98417.81;;;2.84;82.89
53689;BME280;39583;54.682;30.662;2023-03-03T14:23:24;98412.31;;;2.85;82.51
53689;BME280;39583;54.682;30.662;2023-03-03T14:25:55;98412.72;;;2.82;82.49
53689;BME280;39583;54.682;30.662;2023-03-03T14:28:24;98413.38;;;2.91;82.87
53689;BME280;39583;54.682;30.662;2023-03-03T14:30:56;98388.38;;;2.85;82.52
53689;BME280;39583;54.682;30.662;2023-03-03T14:33:28;98386.53;;;2.86;82.47
53689;BME280;39583;54.682;30.662;2023-03-03T14:38:35;98402.13;;;2.89;82.48
53689;BME280;39583;54.682;30.662;2023-03-03T14:43:39;98392.25;;;2.76;82.80
53689;BME280;39583;54.682;30.662;2023-03-03T14:49:01;98384.19;;;2.63;82.50
53689;BME280;39583;54.682;30.662;2023-03-03T14:51:41;98374.19;;;2.65;82.61
53689;BME280;39583;54.682;30.662;2023-03-03T14:54:38;98396.97;;;2.81;82.73
53689;BME280;39583;54.682;30.662;2023-03-03T15:00:05;98385.09;;;2.83;82.43
53689;BME280;39583;54.682;30.662;2023-03-03T15:02:39;98389.81;;;2.81;82.44
53689;BME280;39583;54.682;30.662;2023-03-03T15:05:17;98393.00;;;2.70;82.16
53689;BME280;39583;54.682;30.662;2023-03-03T15:07:48;98389.94;;;2.66;82.53
53689;BME280;39583;54.682;30.662;2023-03-03T15:10:31;98376.78;;;2.58;82.29
53689;BME280;39583;54.682;30.662;2023-03-03T15:12:58;98387.66;;;2.63;82.40
53689;BME280;39583;54.682;30.662;2023-03-03T15:15:33;98384.31;;;2.55;82.12
53689;BME280;39583;54.682;30.662;2023-03-03T15:18:09;98379.41;;;2.52;82.34
53689;BME280;39583;54.682;30.662;2023-03-03T15:20:50;98384.72;;;2.52;82.17
53689;BME280;39583;54.682;30.662;2023-03-03T15:31:41;98394.00;;;2.34;81.30
53689;BME280;39583;54.682;30.662;2023-03-03T15:34:44;98392.94;;;2.29;81.10
53689;BME280;39583;54.682;30.662;2023-03-03T15:37:32;98390.25;;;2.22;81.27
53689;BME280;39583;54.682;30.662;2023-03-03T15:40:32;98392.84;;;2.16;81.09
53689;BME280;39583;54.682;30.662;2023-03-03T15:45:49;98394.44;;;2.10;81.21
53689;BME280;39583;54.682;30.662;2023-03-03T15:56:47;98404.84;;;2.12;81.35
53689;BME280;39583;54.682;30.662;2023-03-03T15:59:55;98413.66;;;2.12;81.25
53689;BME280;39583;54.682;30.662;2023-03-03T16:02:52;98412.00;;;2.11;81.15
53689;BME280;39583;54.682;30.662;2023-03-03T16:13:37;98418.75;;;2.14;80.57
53689;BME280;39583;54.682;30.662;2023-03-03T16:16:24;98406.09;;;2.16;80.45
53689;BME280;39583;54.682;30.662;2023-03-03T16:19:08;98414.06;;;2.16;80.19
53689;BME280;39583;54.682;30.662;2023-03-03T16:22:01;98412.25;;;2.16;80.29
53689;BME280;39583;54.682;30.662;2023-03-03T16:33:13;98408.25;;;2.05;80.51
53689;BME280;39583;54.682;30.662;2023-03-03T16:35:50;98400.66;;;1.96;80.32
53689;BME280;39583;54.682;30.662;2023-03-03T16:38:31;98408.09;;;1.86;80.58
53689;BME280;39583;54.682;30.662;2023-03-03T16:41:06;98405.56;;;1.77;80.51
53689;BME280;39583;54.682;30.662;2023-03-03T16:44:15;98410.47;;;1.81;80.87
53689;BME280;39583;54.682;30.662;2023-03-03T16:46:48;98405.84;;;1.83;81.35
53689;BME280;39583;54.682;30.662;2023-03-03T16:51:57;98403.53;;;1.80;80.54
53689;BME280;39583;54.682;30.662;2023-03-03T16:59:31;98412.06;;;1.75;80.36
53689;BME280;39583;54.682;30.662;2023-03-03T17:04:49;98407.50;;;1.69;80.08
53689;BME280;39583;54.682;30.662;2023-03-03T17:13:09;98398.63;;;1.40;80.48
53689;BME280;39583;54.682;30.662;2023-03-03T17:24:07;98399.75;;;1.46;80.65
53689;BME280;39583;54.682;30.662;2023-03-03T17:27:02;98411.59;;;1.50;80.89
53689;BME280;39583;54.682;30.662;2023-03-03T17:40:10;98397.34;;;1.00;81.02
53689;BME280;39583;54.682;30.662;2023-03-03T17:43:09;98400.47;;;0.89;81.18
53689;BME280;39583;54.682;30.662;2023-03-03T17:45:40;98400.94;;;0.93;81.62
53689;BME280;39583;54.682;30.662;2023-03-03T17:51:30;98401.47;;;1.03;81.48
53689;BME280;39583;54.682;30.662;2023-03-03T17:56:40;98395.88;;;1.12;81.46
53689;BME280;39583;54.682;30.662;2023-03-03T18:02:35;98396.66;;;1.28;81.40
53689;BME280;39583;54.682;30.662;2023-03-03T18:08:03;98393.47;;;1.32;81.42
53689;BME280;39583;54.682;30.662;2023-03-03T18:10:57;98393.38;;;1.26;81.08
53689;BME280;39583;54.682;30.662;2023-03-03T18:22:15;98368.38;;;0.99;80.86
53689;BME280;39583;54.682;30.662;2023-03-03T18:32:40;98391.53;;;0.75;80.56
